26 | 02 | 2021

Daten Vortag

Klimadaten von 10m Höhe gemessen, Station 

Datum / Zeit Intervall min Luftfeuchte % Temperatur °C absolut Luftdruck hPa Wind m/s Windbö m/s Richtung Relative Luftdruck hPa Taupunkt °C Windchill °C Niederschlag mm
25-02-2021 00:12 5 75 9.0 1025.3 2.5 3.6 E 1027.0 4.8 9.0 0.0
25-02-2021 00:17 5 76 9.5 1025.3 2.5 3.6 SE 1027.0 5.5 9.5 0.0
25-02-2021 00:22 5 77 9.7 1025.5 3.6 5.0 SE 1027.2 5.9 9.7 0.0
25-02-2021 00:27 5 77 9.9 1025.4 5.0 6.1 SE 1027.1 6.1 9.9 0.0
25-02-2021 00:32 5 76 10.0 1025.3 3.6 5.0 SE 1027.0 6.0 10.0 0.0
25-02-2021 00:37 5 76 9.9 1025.4 3.6 5.0 SE 1027.1 5.9 9.9 0.0
25-02-2021 00:42 5 76 9.9 1025.6 2.5 3.6 SE 1027.3 5.9 9.9 0.0
25-02-2021 00:47 5 75 9.7 1025.2 1.1 2.5 E 1026.9 5.5 9.7 0.0
25-02-2021 00:52 5 75 9.5 1025.2 1.1 3.6 S 1026.9 5.3 9.5 0.0
25-02-2021 00:57 5 75 9.0 1025.3 2.5 3.6 NW 1027.0 4.8 9.0 0.0
25-02-2021 01:02 5 74 8.5 1025.3 1.1 1.1 NW 1027.0 4.1 8.5 0.0
25-02-2021 01:07 5 74 8.5 1025.1 1.1 1.1 NW 1026.8 4.1 8.5 0.0
25-02-2021 01:12 5 74 7.6 1025.2 0.0 0.0 NWW 1026.9 3.3 7.6 0.0
25-02-2021 01:17 5 80 7.2 1025.1 0.0 0.0 NWW 1026.8 4.0 7.2 0.0
25-02-2021 01:22 5 81 7.0 1025.0 0.0 1.1 NWW 1026.7 4.0 7.0 0.0
25-02-2021 01:27 5 81 6.8 1025.1 0.0 1.1 NWW 1026.8 3.8 6.8 0.0
25-02-2021 01:32 5 81 6.8 1025.2 2.5 3.6 SSE 1026.9 3.8 6.8 0.0
25-02-2021 01:37 5 82 7.1 1025.1 2.5 3.6 SE 1026.8 4.2 7.1 0.0
25-02-2021 01:42 5 79 7.6 1025.1 1.1 2.5 SE 1026.8 4.2 7.6 0.0
25-02-2021 01:47 5 80 7.8 1025.2 1.1 2.5 SE 1026.9 4.6 7.8 0.0
25-02-2021 01:52 5 81 8.3 1024.9 3.6 5.0 SE 1026.6 5.2 8.3 0.0
25-02-2021 01:57 5 82 8.8 1025.0 5.0 6.1 SE 1026.7 5.9 8.8 0.0
25-02-2021 02:02 5 82 9.0 1024.9 5.0 6.1 SE 1026.6 6.1 9.0 0.0
25-02-2021 02:07 5 81 9.3 1024.8 5.0 7.2 SE 1026.5 6.2 9.3 0.0
25-02-2021 02:12 5 81 9.4 1024.8 5.0 6.1 SE 1026.5 6.3 9.4 0.0
25-02-2021 02:17 5 79 9.5 1024.8 5.0 6.1 SE 1026.5 6.1 9.5 0.0
25-02-2021 02:22 5 78 9.5 1024.7 5.0 6.1 SE 1026.4 5.9 9.5 0.0
25-02-2021 02:27 5 78 9.4 1024.6 5.0 7.2 SE 1026.3 5.8 9.4 0.0
25-02-2021 02:32 5 78 9.3 1024.4 6.1 7.2 SE 1026.1 5.7 9.3 0.0
25-02-2021 02:37 5 78 9.4 1024.6 7.2 8.6 SE 1026.3 5.8 8.2 0.0
25-02-2021 02:42 5 78 9.5 1024.6 7.2 8.6 S 1026.3 5.9 8.4 0.0
25-02-2021 02:47 5 77 9.5 1024.3 6.1 8.6 SE 1026.0 5.7 9.5 0.0
25-02-2021 02:52 5 77 9.6 1024.3 5.0 7.2 S 1026.0 5.8 9.6 0.0
25-02-2021 02:57 5 77 9.6 1024.4 5.0 6.1 S 1026.1 5.8 9.6 0.0
25-02-2021 03:02 5 77 9.6 1024.4 5.0 6.1 SE 1026.1 5.8 9.6 0.0
25-02-2021 03:07 5 77 9.6 1024.3 5.0 6.1 SE 1026.0 5.8 9.6 0.0
25-02-2021 03:12 5 76 9.7 1024.2 5.0 6.1 SSE 1025.9 5.7 9.7 0.0
25-02-2021 03:17 5 76 9.6 1024.5 5.0 7.2 S 1026.2 5.6 9.6 0.0
25-02-2021 03:22 5 76 9.5 1024.2 3.6 5.0 SSE 1025.9 5.5 9.5 0.0
25-02-2021 03:27 5 76 9.4 1024.0 3.6 5.0 SE 1025.7 5.4 9.4 0.0
25-02-2021 03:32 5 77 9.4 1024.1 5.0 6.1 SE 1025.8 5.6 9.4 0.0
25-02-2021 03:37 5 77 9.2 1024.2 6.1 7.2 S 1025.9 5.4 9.2 0.0
25-02-2021 03:42 5 77 9.2 1024.0 3.6 5.0 S 1025.7 5.4 9.2 0.0
25-02-2021 03:47 5 77 9.2 1024.0 3.6 6.1 S 1025.7 5.4 9.2 0.0
25-02-2021 03:52 5 77 9.2 1024.0 6.1 8.6 SSE 1025.7 5.4 9.2 0.0
25-02-2021 03:57 5 77 9.3 1024.3 5.0 6.1 S 1026.0 5.5 9.3 0.0
25-02-2021 04:02 5 77 9.3 1024.2 7.2 8.6 S 1025.9 5.5 8.1 0.0
25-02-2021 04:07 5 77 9.3 1024.1 7.2 8.6 S 1025.8 5.5 8.1 0.0
25-02-2021 04:12 5 77 9.7 1023.9 5.0 7.2 SE 1025.6 5.9 9.7 0.0
25-02-2021 04:17 5 76 9.6 1023.8 5.0 6.1 SSE 1025.5 5.6 9.6 0.0
25-02-2021 04:22 5 76 9.6 1023.8 5.0 7.2 SE 1025.5 5.6 9.6 0.0
25-02-2021 04:27 5 76 9.6 1023.8 5.0 6.1 SE 1025.5 5.6 9.6 0.0
25-02-2021 04:32 5 76 9.4 1024.0 5.0 6.1 S 1025.7 5.4 9.4 0.0
25-02-2021 04:37 5 76 9.4 1024.2 5.0 6.1 SE 1025.9 5.4 9.4 0.0
25-02-2021 04:42 5 76 9.3 1023.9 5.0 6.1 SE 1025.6 5.3 9.3 0.0
25-02-2021 04:47 5 77 9.3 1023.6 5.0 7.2 S 1025.3 5.5 9.3 0.0
25-02-2021 04:52 5 76 9.3 1023.8 3.6 5.0 SE 1025.5 5.3 9.3 0.0
25-02-2021 04:57 5 76 9.2 1023.9 5.0 7.2 S 1025.6 5.2 9.2 0.0
25-02-2021 05:02 5 76 9.1 1024.1 3.6 5.0 S 1025.8 5.1 9.1 0.0
25-02-2021 05:07 5 76 9.1 1024.0 3.6 5.0 S 1025.7 5.1 9.1 0.0
25-02-2021 05:12 5 76 8.9 1023.8 5.0 6.1 SE 1025.5 4.9 8.9 0.0
25-02-2021 05:17 5 77 8.8 1023.7 6.1 7.2 SE 1025.4 5.0 8.8 0.0
25-02-2021 05:22 5 77 8.8 1023.6 5.0 5.0 SE 1025.3 5.0 8.8 0.0
25-02-2021 05:27 5 77 8.7 1023.8 5.0 7.2 SE 1025.5 4.9 8.7 0.0
25-02-2021 05:32 5 77 8.6 1023.6 6.1 7.2 SE 1025.3 4.8 8.6 0.0
25-02-2021 05:37 5 78 8.5 1023.6 3.6 6.1 SE 1025.3 4.9 8.5 0.0
25-02-2021 05:42 5 78 8.4 1023.6 3.6 5.0 SE 1025.3 4.8 8.4 0.0
25-02-2021 05:47 5 78 8.2 1023.8 2.5 5.0 SE 1025.5 4.6 8.2 0.0
25-02-2021 05:52 5 78 8.1 1023.5 1.1 2.5 SE 1025.2 4.5 8.1 0.0
25-02-2021 05:57 5 79 8.0 1023.5 2.5 3.6 SE 1025.2 4.6 8.0 0.0
25-02-2021 06:02 5 79 7.9 1023.4 1.1 2.5 SE 1025.1 4.5 7.9 0.0
25-02-2021 06:07 5 79 7.9 1023.6 1.1 2.5 SE 1025.3 4.5 7.9 0.0
25-02-2021 06:12 5 80 7.6 1023.1 0.0 1.1 SE 1024.8 4.4 7.6 0.0
25-02-2021 06:17 5 84 7.3 1023.3 1.1 2.5 SE 1025.0 4.8 7.3 0.0
25-02-2021 06:22 5 84 7.1 1023.6 1.1 2.5 SE 1025.3 4.6 7.1 0.0
25-02-2021 06:27 5 84 7.0 1023.5 1.1 2.5 SE 1025.2 4.5 7.0 0.0
25-02-2021 06:32 5 85 7.1 1023.5 3.6 5.0 S 1025.2 4.8 7.1 0.0
25-02-2021 06:37 5 86 7.2 1023.5 3.6 5.0 SE 1025.2 5.0 7.2 0.0
25-02-2021 06:42 5 86 7.3 1023.4 5.0 6.1 S 1025.1 5.1 7.3 0.0
25-02-2021 06:47 5 86 7.4 1023.2 3.6 5.0 SE 1024.9 5.2 7.4 0.0
25-02-2021 06:52 5 86 7.4 1023.2 5.0 6.1 S 1024.9 5.2 7.4 0.0
25-02-2021 06:57 5 81 7.6 1023.3 6.1 7.2 S 1025.0 4.6 7.6 0.0
25-02-2021 07:02 5 82 7.7 1023.1 6.1 7.2 S 1024.8 4.8 7.7 0.0
25-02-2021 07:07 5 82 7.7 1023.3 6.1 7.2 S 1025.0 4.8 7.7 0.0
25-02-2021 07:12 5 81 7.8 1023.1 5.0 6.1 SE 1024.8 4.8 7.8 0.0
25-02-2021 07:17 5 81 7.8 1023.2 3.6 5.0 SE 1024.9 4.8 7.8 0.0
25-02-2021 07:22 5 81 7.8 1023.3 3.6 5.0 SE 1025.0 4.8 7.8 0.0
25-02-2021 07:27 5 80 7.6 1023.3 5.0 8.6 SSE 1025.0 4.4 7.6 0.0
25-02-2021 07:32 5 81 7.7 1023.2 6.1 7.2 S 1024.9 4.7 7.7 0.0
25-02-2021 07:37 5 81 7.8 1023.2 5.0 6.1 SE 1024.9 4.8 7.8 0.0
25-02-2021 07:42 5 81 8.0 1023.0 6.1 7.2 S 1024.7 4.9 8.0 0.0
25-02-2021 07:47 5 81 8.1 1023.3 6.1 7.2 SSE 1025.0 5.0 8.1 0.0
25-02-2021 07:52 5 80 8.2 1023.2 5.0 6.1 S 1024.9 5.0 8.2 0.0
25-02-2021 07:57 5 80 8.3 1023.5 2.5 5.0 SE 1025.2 5.1 8.3 0.0
25-02-2021 08:02 5 80 8.4 1023.2 3.6 5.0 SE 1024.9 5.2 8.4 0.0
25-02-2021 08:07 5 80 8.4 1023.4 2.5 3.6 SE 1025.1 5.2 8.4 0.0
25-02-2021 08:12 5 79 8.5 1023.4 3.6 5.0 SE 1025.1 5.1 8.5 0.0
25-02-2021 08:17 5 79 8.6 1023.6 6.1 7.2 S 1025.3 5.2 8.6 0.0
25-02-2021 08:22 5 79 8.8 1023.4 5.0 6.1 SE 1025.1 5.4 8.8 0.0
25-02-2021 08:27 5 78 9.0 1023.3 5.0 6.1 S 1025.0 5.4 9.0 0.0
25-02-2021 08:32 5 78 9.2 1023.4 7.2 9.7 SW 1025.1 5.6 8.0 0.0
25-02-2021 08:37 5 77 9.4 1023.5 5.0 7.2 S 1025.2 5.6 9.4 0.0
25-02-2021 08:42 5 76 9.7 1023.3 5.0 6.1 SE 1025.0 5.7 9.7 0.0
25-02-2021 08:47 5 76 9.9 1023.4 2.5 3.6 S 1025.1 5.9 9.9 0.0
25-02-2021 08:52 5 75 10.2 1023.3 3.6 5.0 SE 1025.0 6.0 10.2 0.0
25-02-2021 08:57 5 74 10.5 1023.5 3.6 5.0 SE 1025.2 6.1 10.5 0.0
25-02-2021 09:02 5 74 11.0 1023.5 2.5 3.6 SE 1025.2 6.6 11.0 0.0
25-02-2021 09:07 5 73 11.3 1023.3 2.5 3.6 S 1025.0 6.7 11.3 0.0
25-02-2021 09:12 5 73 11.6 1023.6 5.0 7.2 S 1025.3 6.9 11.6 0.0
25-02-2021 09:17 5 72 12.0 1023.2 1.1 3.6 S 1024.9 7.1 12.0 0.0
25-02-2021 09:22 5 71 12.2 1023.2 6.1 8.6 SSW 1024.9 7.1 12.2 0.0
25-02-2021 09:27 5 71 12.4 1023.2 6.1 7.2 SW 1024.9 7.3 12.4 0.0
25-02-2021 09:32 5 67 12.6 1023.2 5.0 6.1 S 1024.9 6.7 12.6 0.0
25-02-2021 09:37 5 66 12.6 1023.4 6.1 8.6 S 1025.1 6.4 12.6 0.0
25-02-2021 09:42 5 66 12.7 1023.4 6.1 8.6 S 1025.1 6.5 12.7 0.0
25-02-2021 09:47 5 66 12.8 1023.5 5.0 6.1 S 1025.2 6.6 12.8 0.0
25-02-2021 09:52 5 66 13.0 1023.0 6.1 8.6 SE 1024.7 6.8 13.0 0.0
25-02-2021 09:57 5 65 13.2 1023.3 8.6 11.2 SE 1025.0 6.8 11.5 0.0
25-02-2021 10:02 5 65 13.4 1023.0 5.0 6.1 SE 1024.7 7.0 13.4 0.0
25-02-2021 10:07 5 65 13.4 1023.1 5.0 6.1 SE 1024.8 7.0 13.4 0.0
25-02-2021 10:13 6 64 13.9 1023.0 3.6 6.1 S 1024.7 7.2 13.9 0.0
25-02-2021 10:18 5 63 14.6 1023.0 5.0 6.1 W 1024.7 7.7 14.6 0.0
25-02-2021 10:23 5 61 14.8 1022.9 6.1 9.7 SW 1024.6 7.4 14.8 0.0
25-02-2021 10:29 6 61 15.0 1022.9 7.2 9.7 SW 1024.6 7.6 14.1 0.0
25-02-2021 10:34 5 61 14.7 1023.0 11.2 13.3 W 1024.7 7.3 12.1 0.0
25-02-2021 10:39 5 61 14.7 1023.2 9.7 11.2 W 1024.9 7.3 12.6 0.0
25-02-2021 10:45 6 61 14.6 1023.2 11.2 14.8 W 1024.9 7.2 12.0 0.0
25-02-2021 10:50 5 61 14.7 1022.8 9.7 12.2 W 1024.5 7.3 12.6 0.0
25-02-2021 10:55 5 61 14.9 1023.0 7.2 8.6 W 1024.7 7.5 14.0 0.0
25-02-2021 11:01 6 61 15.2 1023.1 6.1 8.6 SWW 1024.8 7.7 15.2 0.0
25-02-2021 11:06 5 62 15.2 1023.1 6.1 8.6 W 1024.8 8.0 15.2 0.0
25-02-2021 11:11 5 61 15.5 1022.8 6.1 9.7 SW 1024.5 8.0 15.5 0.0
25-02-2021 11:17 6 60 15.7 1022.7 6.1 9.7 SW 1024.4 8.0 15.7 0.0
25-02-2021 11:22 5 60 15.8 1022.7 9.7 14.8 SW 1024.4 8.1 13.9 0.0
25-02-2021 11:27 5 60 16.0 1022.8 12.2 15.8 SW 1024.5 8.3 13.2 0.0
25-02-2021 11:33 6 60 16.3 1022.9 8.6 11.2 W 1024.6 8.5 14.8 0.0
25-02-2021 11:38 5 60 16.3 1022.7 11.2 14.8 W 1024.4 8.5 13.9 0.0
25-02-2021 11:43 5 59 16.5 1022.6 8.6 14.8 SW 1024.3 8.5 15.1 0.0
25-02-2021 11:48 5 59 16.6 1022.5 11.2 13.3 S 1024.2 8.6 14.2 0.0
25-02-2021 11:53 5 59 16.7 1022.8 9.7 12.2 S 1024.5 8.7 14.9 0.0
25-02-2021 11:58 5 58 16.8 1022.7 9.7 12.2 W 1024.4 8.5 15.0 0.0
25-02-2021 12:03 5 57 16.9 1022.6 11.2 12.2 W 1024.3 8.3 14.6 0.0
25-02-2021 12:08 5 56 16.8 1022.8 14.8 17.3 SW 1024.5 8.0 13.4 0.0
25-02-2021 12:13 5 58 16.8 1022.9 13.3 17.3 W 1024.6 8.5 13.8 0.0
25-02-2021 12:18 5 58 16.8 1022.6 12.2 15.8 SW 1024.3 8.5 14.1 0.0
25-02-2021 12:23 5 57 16.9 1022.6 11.2 13.3 SW 1024.3 8.3 14.6 0.0
25-02-2021 12:28 5 58 17.0 1022.7 11.2 13.3 SW 1024.4 8.7 14.7 0.0
25-02-2021 12:33 5 57 17.0 1022.7 14.8 15.8 W 1024.4 8.4 13.7 0.0
25-02-2021 12:38 5 57 16.9 1022.7 11.2 14.8 SW 1024.4 8.3 14.6 0.0
25-02-2021 12:43 5 58 17.0 1022.8 11.2 13.3 W 1024.5 8.7 14.7 0.0
25-02-2021 12:51 5 58 17.0 1022.5 12.2 14.8 W 1024.2 8.7 14.4 0.0
25-02-2021 12:56 5 58 17.0 1022.5 11.2 14.8 SW 1024.2 8.7 14.7 0.0
25-02-2021 13:01 5 58 16.9 1022.6 14.8 15.8 W 1024.3 8.6 13.5 0.0
25-02-2021 13:06 5 59 17.0 1022.7 14.8 20.9 W 1024.4 9.0 13.7 0.0
25-02-2021 13:11 5 58 16.9 1022.7 13.3 14.8 W 1024.4 8.6 13.9 0.0
25-02-2021 13:16 5 59 17.1 1022.3 9.7 13.3 W 1024.0 9.0 15.3 0.0
25-02-2021 13:21 5 58 17.1 1022.2 18.4 23.4 W 1023.9 8.8 13.0 0.0
25-02-2021 13:26 5 59 17.2 1022.3 9.7 12.2 W 1024.0 9.1 15.4 0.0
25-02-2021 13:31 5 58 17.3 1022.5 17.3 19.4 W 1024.2 9.0 13.4 0.0
25-02-2021 13:36 5 53 17.5 1022.3 12.2 18.4 W 1024.0 7.8 14.9 0.0
25-02-2021 13:41 5 58 17.3 1022.4 8.6 11.2 W 1024.1 9.0 15.9 0.0
25-02-2021 13:46 5 57 17.1 1022.3 11.2 14.8 W 1024.0 8.5 14.8 0.0
25-02-2021 13:51 5 58 17.2 1022.3 9.7 12.2 SWW 1024.0 8.9 15.4 0.0
25-02-2021 13:56 5 57 17.4 1022.2 11.2 12.2 SWW 1023.9 8.8 15.2 0.0
25-02-2021 14:01 5 57 17.1 1022.2 14.8 18.4 W 1023.9 8.5 13.8 0.0
25-02-2021 14:06 5 57 17.0 1022.2 12.2 15.8 W 1023.9 8.4 14.4 0.0
25-02-2021 14:11 5 59 17.1 1022.2 9.7 13.3 W 1023.9 9.0 15.3 0.0
25-02-2021 14:16 5 58 17.2 1022.4 11.2 13.3 W 1024.1 8.9 14.9 0.0
25-02-2021 14:21 5 57 17.3 1022.2 12.2 15.8 W 1023.9 8.7 14.7 0.0
25-02-2021 14:26 5 57 17.4 1022.4 15.8 18.4 W 1024.1 8.8 13.9 0.0
25-02-2021 14:31 5 59 17.4 1022.0 7.2 9.7 W 1023.7 9.3 16.6 0.0
25-02-2021 14:36 5 53 17.6 1022.1 9.7 13.3 W 1023.8 7.9 15.9 0.0
25-02-2021 14:41 5 53 17.6 1022.3 9.7 11.2 SW 1024.0 7.9 15.9 0.0
25-02-2021 14:46 5 52 17.7 1022.4 11.2 14.8 W 1024.1 7.7 15.5 0.0
25-02-2021 14:51 5 53 17.7 1022.0 9.7 12.2 W 1023.7 8.0 16.0 0.0
25-02-2021 14:56 5 53 17.7 1022.3 7.2 9.7 W 1024.0 8.0 17.0 0.0
25-02-2021 15:01 5 53 17.9 1022.1 7.2 11.2 W 1023.8 8.2 17.2 0.0
25-02-2021 15:06 5 52 18.0 1022.0 12.2 15.8 SWW 1023.7 8.0 15.5 0.0
25-02-2021 15:11 5 52 17.9 1022.3 12.2 19.4 W 1024.0 7.9 15.4 0.0
25-02-2021 15:16 5 51 17.8 1021.9 14.8 17.3 W 1023.6 7.6 14.6 0.0
25-02-2021 15:21 5 51 17.9 1022.0 11.2 13.3 SW 1023.7 7.6 15.7 0.0
25-02-2021 15:26 5 50 17.8 1022.0 12.2 15.8 SW 1023.7 7.3 15.3 0.0
25-02-2021 15:31 5 50 17.6 1022.2 14.8 17.3 SW 1023.9 7.1 14.4 0.0
25-02-2021 15:36 5 54 17.4 1022.3 12.2 14.8 SWW 1024.0 8.0 14.8 0.0
25-02-2021 15:41 5 54 17.1 1022.2 12.2 17.3 W 1023.9 7.7 14.5 0.0
25-02-2021 15:46 5 54 16.9 1022.3 14.8 18.4 W 1024.0 7.6 13.5 0.0
25-02-2021 15:51 5 53 17.2 1022.3 11.2 13.3 SW 1024.0 7.6 14.9 0.0
25-02-2021 15:56 5 53 17.3 1022.4 11.2 14.8 W 1024.1 7.7 15.0 0.0
25-02-2021 16:01 5 52 17.4 1022.3 14.8 20.9 W 1024.0 7.5 14.2 0.0
25-02-2021 16:06 5 52 17.4 1022.2 14.8 18.4 W 1023.9 7.5 14.2 0.0
25-02-2021 16:11 5 51 17.4 1022.1 13.3 18.4 SWW 1023.8 7.2 14.5 0.0
25-02-2021 16:16 5 52 17.4 1022.2 8.6 12.2 SWW 1023.9 7.5 16.0 0.0
25-02-2021 16:21 5 52 17.3 1022.3 13.3 18.4 W 1024.0 7.4 14.4 0.0
25-02-2021 16:26 5 52 17.3 1022.4 11.2 13.3 W 1024.1 7.4 15.0 0.0
25-02-2021 16:31 5 52 17.2 1022.4 11.2 13.3 W 1024.1 7.3 14.9 0.0
25-02-2021 16:36 5 52 17.0 1022.1 11.2 13.3 W 1023.8 7.1 14.7 0.0
25-02-2021 16:41 5 52 16.9 1022.3 13.3 18.4 SWW 1024.0 7.0 13.9 0.0
25-02-2021 16:46 5 53 16.6 1022.6 11.2 12.2 W 1024.3 7.0 14.2 0.0
25-02-2021 16:51 5 55 16.1 1022.4 8.6 11.2 W 1024.1 7.1 14.6 0.0
25-02-2021 16:56 5 56 15.7 1022.4 8.6 12.2 W 1024.1 7.0 14.2 0.0
25-02-2021 17:01 5 57 15.5 1022.6 8.6 11.2 W 1024.3 7.0 14.0 0.0
25-02-2021 17:06 5 58 15.3 1022.6 6.1 8.6 W 1024.3 7.1 15.3 0.0
25-02-2021 17:11 5 59 15.1 1022.7 8.6 11.2 W 1024.4 7.2 13.5 0.0
25-02-2021 17:16 5 57 15.1 1022.7 12.2 15.8 W 1024.4 6.7 12.2 0.0
25-02-2021 17:21 5 57 15.2 1022.7 2.5 3.6 W 1024.4 6.8 15.2 0.0
25-02-2021 17:26 5 58 14.9 1022.7 8.6 9.7 W 1024.4 6.7 13.3 0.0
25-02-2021 17:31 5 58 14.8 1022.6 3.6 5.0 S 1024.3 6.6 14.8 0.0
25-02-2021 17:36 5 58 14.7 1022.6 5.0 6.1 W 1024.3 6.5 14.7 0.0
25-02-2021 17:41 5 58 14.6 1022.8 2.5 3.6 SW 1024.5 6.4 14.6 0.0
25-02-2021 17:46 5 59 14.3 1022.7 2.5 5.0 W 1024.4 6.4 14.3 0.0
25-02-2021 17:51 5 60 14.1 1023.0 2.5 3.6 SW 1024.7 6.5 14.1 0.0
25-02-2021 17:56 5 60 13.9 1022.9 1.1 2.5 SW 1024.6 6.3 13.9 0.0
25-02-2021 18:01 5 60 13.7 1023.1 3.6 5.0 W 1024.8 6.1 13.7 0.0
25-02-2021 18:06 5 60 13.6 1023.1 5.0 6.1 W 1024.8 6.0 13.6 0.0
25-02-2021 18:11 5 61 13.5 1023.1 6.1 7.2 W 1024.8 6.1 13.5 0.0
25-02-2021 18:16 5 61 13.5 1023.2 6.1 7.2 W 1024.9 6.1 13.5 0.0
25-02-2021 18:21 5 61 13.3 1023.2 6.1 8.6 W 1024.9 6.0 13.3 0.0
25-02-2021 18:26 5 61 13.1 1023.2 6.1 7.2 W 1024.9 5.8 13.1 0.0
25-02-2021 18:31 5 61 13.0 1023.3 5.0 7.2 W 1025.0 5.7 13.0 0.0
25-02-2021 18:36 5 60 12.6 1023.4 0.0 0.0 N 1025.1 5.1 12.6 0.0
25-02-2021 18:41 5 63 12.1 1023.8 1.1 1.1 W 1025.5 5.3 12.1 0.0
25-02-2021 18:46 5 66 11.7 1023.7 2.5 2.5 NW 1025.4 5.6 11.7 0.0
25-02-2021 18:51 5 67 11.6 1023.7 3.6 6.1 NW 1025.4 5.7 11.6 0.0
25-02-2021 18:56 5 67 11.5 1023.8 1.1 2.5 NW 1025.5 5.6 11.5 0.0
25-02-2021 19:01 5 70 11.0 1023.7 3.6 6.1 N 1025.4 5.8 11.0 0.0
25-02-2021 19:06 5 71 10.9 1023.9 3.6 7.2 W 1025.6 5.9 10.9 0.0
25-02-2021 19:11 5 72 10.9 1024.1 3.6 7.2 NW 1025.8 6.1 10.9 0.0
25-02-2021 19:16 5 72 10.9 1024.1 3.6 5.0 NW 1025.8 6.1 10.9 0.0
25-02-2021 19:21 5 72 10.9 1024.0 5.0 6.1 NW 1025.7 6.1 10.9 0.0
25-02-2021 19:26 5 73 10.9 1024.3 5.0 6.1 NW 1026.0 6.3 10.9 0.0
25-02-2021 19:31 5 73 11.1 1024.1 6.1 7.2 NW 1025.8 6.5 11.1 0.0
25-02-2021 19:36 5 73 11.2 1024.3 3.6 5.0 W 1026.0 6.6 11.2 0.0
25-02-2021 19:41 5 73 11.1 1024.2 3.6 6.1 NW 1025.9 6.5 11.1 0.0
25-02-2021 19:46 5 73 10.9 1024.2 2.5 6.1 NW 1025.9 6.3 10.9 0.0
25-02-2021 19:51 5 73 10.9 1024.4 3.6 6.1 NW 1026.1 6.3 10.9 0.0
25-02-2021 19:56 5 74 11.1 1024.1 7.2 9.7 W 1025.8 6.7 10.0 0.0
25-02-2021 20:01 5 73 11.2 1024.3 6.1 8.6 W 1026.0 6.6 11.2 0.0
25-02-2021 20:06 5 73 11.2 1024.0 7.2 8.6 W 1025.7 6.6 10.1 0.0
25-02-2021 20:11 5 73 11.3 1024.2 7.2 9.7 W 1025.9 6.7 10.2 0.0
25-02-2021 20:16 5 73 11.2 1024.1 8.6 11.2 W 1025.8 6.6 9.3 0.0
25-02-2021 20:21 5 73 11.2 1024.5 9.7 12.2 W 1026.2 6.6 8.7 0.0
25-02-2021 20:26 5 73 11.5 1024.5 11.2 12.2 W 1026.2 6.8 8.4 0.0
25-02-2021 20:31 5 72 11.6 1024.4 8.6 9.7 W 1026.1 6.7 9.7 0.0
25-02-2021 20:36 5 72 11.6 1024.1 12.2 15.8 W 1025.8 6.7 8.1 0.0
25-02-2021 20:41 5 72 11.7 1024.5 11.2 12.2 NWW 1026.2 6.8 8.6 0.0
25-02-2021 20:46 5 72 11.6 1024.4 9.7 13.3 W 1026.1 6.7 9.2 0.0
25-02-2021 20:51 5 72 11.6 1024.6 9.7 11.2 W 1026.3 6.7 9.2 0.0
25-02-2021 20:56 5 72 11.6 1024.5 7.2 8.6 W 1026.2 6.7 10.6 0.0
25-02-2021 21:01 5 72 11.6 1024.6 12.2 13.3 W 1026.3 6.7 8.1 0.0
25-02-2021 21:06 5 72 11.5 1024.8 9.7 12.2 W 1026.5 6.6 9.1 0.0
25-02-2021 21:11 5 73 11.3 1024.7 9.7 12.2 W 1026.4 6.7 8.9 0.0
25-02-2021 21:16 5 73 11.1 1024.9 7.2 11.2 W 1026.6 6.5 10.0 0.0
25-02-2021 21:21 5 73 10.9 1024.9 5.0 8.6 W 1026.6 6.3 10.9 0.0
25-02-2021 21:26 5 74 10.7 1025.2 8.6 9.7 W 1026.9 6.3 8.8 0.0
25-02-2021 21:31 5 74 10.8 1024.9 7.2 9.7 NW 1026.6 6.4 9.7 0.0
25-02-2021 21:36 5 74 10.8 1025.0 8.6 12.2 W 1026.7 6.4 8.9 0.0
25-02-2021 21:41 5 75 10.7 1025.2 7.2 9.7 W 1026.9 6.5 9.6 0.0
25-02-2021 21:46 5 75 10.7 1025.1 11.2 13.3 W 1026.8 6.5 7.5 0.0
25-02-2021 21:51 5 75 10.6 1025.2 9.7 11.2 W 1026.9 6.4 8.1 0.0
25-02-2021 21:56 5 75 10.5 1025.3 8.6 9.7 W 1027.0 6.3 8.5 0.0
25-02-2021 22:01 5 75 10.4 1025.3 7.2 9.7 W 1027.0 6.2 9.3 0.0
25-02-2021 22:06 5 75 10.4 1025.3 5.0 6.1 NW 1027.0 6.2 10.4 0.0
25-02-2021 22:11 5 75 10.1 1025.3 2.5 3.6 NW 1027.0 5.9 10.1 0.0
25-02-2021 22:16 5 75 9.8 1025.2 1.1 2.5 NW 1026.9 5.6 9.8 0.0
25-02-2021 22:21 5 75 9.5 1025.2 2.5 5.0 NW 1026.9 5.3 9.5 0.0
25-02-2021 22:26 5 76 9.3 1025.4 3.6 5.0 NW 1027.1 5.3 9.3 0.0
25-02-2021 22:31 5 76 9.1 1025.6 1.1 2.5 W 1027.3 5.1 9.1 0.0
25-02-2021 22:36 5 77 9.0 1025.2 0.0 1.1 NW 1026.9 5.2 9.0 0.0
25-02-2021 22:41 5 77 8.9 1025.3 1.1 2.5 NW 1027.0 5.1 8.9 0.0
25-02-2021 22:46 5 77 8.8 1025.2 0.0 1.1 N 1026.9 5.0 8.8 0.0
25-02-2021 22:51 5 77 8.7 1025.4 1.1 2.5 W 1027.1 4.9 8.7 0.0
25-02-2021 22:56 5 77 8.6 1025.5 1.1 2.5 NW 1027.2 4.8 8.6 0.0
25-02-2021 23:01 5 78 8.6 1025.3 1.1 2.5 NW 1027.0 5.0 8.6 0.0
25-02-2021 23:06 5 78 8.5 1025.4 0.0 1.1 NW 1027.1 4.9 8.5 0.0
25-02-2021 23:11 5 78 8.6 1025.1 3.6 5.0 W 1026.8 5.0 8.6 0.0
25-02-2021 23:16 5 79 8.8 1025.4 2.5 3.6 W 1027.1 5.4 8.8 0.0
25-02-2021 23:21 5 78 8.7 1025.2 1.1 2.5 NW 1026.9 5.1 8.7 0.0
25-02-2021 23:26 5 78 8.5 1025.2 1.1 2.5 NW 1026.9 4.9 8.5 0.0
25-02-2021 23:31 5 77 8.4 1025.2 0.0 1.1 NW 1026.9 4.6 8.4 0.0
25-02-2021 23:36 5 77 8.4 1025.0 2.5 3.6 W 1026.7 4.6 8.4 0.0
25-02-2021 23:41 5 78 8.4 1025.1 5.0 6.1 NW 1026.8 4.8 8.4 0.0
25-02-2021 23:46 5 79 8.5 1025.3 2.5 5.0 W 1027.0 5.1 8.5 0.0
25-02-2021 23:51 5 78 8.4 1025.2 1.1 2.5 NW 1026.9 4.8 8.4 0.0
25-02-2021 23:56 5 78 8.3 1025.4 1.1 2.5 NW 1027.1 4.7 8.3 0.0

 

  Tagesdaten                                                                         Tabelle: 07 UHR

STATIONHÖHELUFTD.TEMP.T-MinT-MaxU%RR1RR12SSSDDFFFXWetter+WolkenBöen
UFS TW Ems 0 ------ --- --- --- --- ---- --- --- -- --- --- --- ---
UFS Deutsche Bucht 0 1021.9 7.0 6.5 10.3 92 ---- --- --- S 29 --- --- ---
Helgoland 4 1022.0 7.2 7.0 9.9 91 0.0 0 0 S 21 31 --- ---
List/Sylt 26 1020.8 7.9 6.9 12.5 87 0.0 0 0 SW 30 44 --- ---
Schleswig 43 1022.4 8.3 8.2 13.7 87 0.0 0 0 S 15 22 --- ---
Leuchtturm Kiel 5 1022.5 10.3 10.3 15.3 77 ---- --- --- SW 39 45 --- ---
Kiel 27 1022.7 9.7 9.6 14.8 83 0.0 0 0 SW 12 22 --- ---
Fehmarn 3 1023.1 10.0 9.0 14.1 81 0.0 0 0 S 16 32 wolkenlos ---
Arkona 42 1024.2 7.2 7.0 12.3 91 0.0 0 0 SW 27 31 wolkenlos ---
Norderney 11 1022.7 8.8 8.8 13.9 86 0.0 0 0 S 21 32 --- ---
Leuchtt. Alte Weser 32 1022.5 10.0 9.0 16.0 86 ---- --- --- S 40 --- --- ---
Cuxhaven 5 1023.1 11.6 11.4 16.2 76 0.0 0 0 SW 14 26 --- ---
Hamburg-Flh. 11 1024.2 8.5 6.8 14.8 90 0.0 0 0 SO 7 11 wolkenlos ---
Schwerin 59 1025.0 8.1 7.8 13.7 89 0.0 0 0 S 19 26 wolkenlos ---
Rostock 4 1024.2 9.6 9.6 15.6 79 0.0 0 0 S 13 20 wolkenlos ---
Greifswald 2 1025.0 8.8 7.9 14.0 87 0.0 0 0 S 13 19 wolkenlos ---
Emden 0 1023.5 9.5 9.3 15.0 86 0.0 0 0 S 16 27 wolkenlos ---
Bremen-Flh. 5 1024.7 7.2 7.2 13.2 91 0.0 0 0 S 7 11 Dunst oder flacher Nebel ---
Lüchow 17 1025.8 5.8 3.8 12.3 97 0.0 0 0 S 5 8 wolkenlos ---
Marnitz 81 1025.6 9.4 9.2 14.9 83 0.0 0 0 SW 12 21 wolkenlos ---
Waren 70 1025.9 5.0 4.4 12.4 98 0.0 0 0 S 12 14 wolkenlos ---
Neuruppin 38 1026.9 3.9 2.8 12.6 100 0.0 0 0 S 3 5 --- ---
Angermünde 56 1027.1 6.1 6.1 13.8 100 0.0 0 0 S 9 13 wolkenlos ---
Münster/Osnabr.-Flh. 48 1025.8 4.5 3.9 14.0 98 0.0 0 0 SO 6 9 Dunst oder flacher Nebel ---
Hannover-Flh. 59 1025.7 9.7 9.6 14.7 81 0.0 0 0 S 9 11 wolkenlos ---
Magdeburg 76 1026.9 5.2 4.6 13.7 97 0.0 0 0 S 6 8 wolkenlos ---
Potsdam 81 1027.2 8.2 7.8 13.3 85 0.0 0 0 S 20 28 wolkenlos ---
Berlin-Tegel 37 1027.3 7.8 7.0 14.9 88 0.0 0 0 S 6 9 wolkenlos ---
Berlin-Tempelhof 48 1027.5 6.9 6.9 15.0 89 0.0 0 --- -- --- 9 --- ---
Berlin-Dahlem 51 1027.3 5.0 4.3 13.0 --- ---- 0 0 S 14 --- wolkenlos ---
Lindenberg 91 1028.1 5.9 5.6 14.2 89 0.0 0 0 S 13 18 wolkenlos ---
Düsseldorf-Flh. 45 1026.3 10.1 9.4 17.1 76 0.0 0 0 SO 19 26 gering bewölkt ---
Essen 150 1026.4 11.5 11.4 16.3 65 0.0 0 0 S 9 24 wolkenlos ---
Kahler Asten 839 ------ 8.1 8.0 9.9 68 0.0 0 0 SW 23 35 wolkenlos ---
Bad Lippspringe 157 1026.6 5.9 4.9 14.8 89 0.0 0 0 SO 3 11 wolkenlos ---
Fritzlar 174 1028.6 0.7 0.3 11.1 98 ---- 0 0 - 0 --- Nebel ---
Brocken 1142 ------ 7.4 7.0 9.0 61 ---- --- --- SW 57 70 wolkenlos Sturmböen
Leipzig-Flh. 142 1028.1 8.3 7.8 14.1 78 0.0 0 0 S 18 24 wolkenlos ---
Dresden-Flh. 227 1029.6 5.2 5.1 10.4 85 0.0 0 0 S 20 25 wolkenlos ---
Cottbus 69 1028.5 2.6 2.5 11.2 97 0.0 0 0 S 5 7 wolkenlos ---
Görlitz 238 1030.1 8.2 8.2 11.1 68 0.0 0 0 SW 9 13 wolkenlos ---
Aachen 231 1026.3 12.0 11.1 15.3 64 0.0 0 0 S 20 29 wolkenlos ---
Nürburg 485 1027.9 9.1 9.1 12.4 66 0.0 0 0 S 12 19 wolkenlos ---
Köln/Bonn-Flh. 92 1027.2 10.4 9.3 15.6 67 0.0 0 0 SO 11 17 wolkenlos ---
Gießen/Wettenberg 203 1029.3 2.3 1.9 14.0 98 0.0 0 0 NO 5 8 Nebel ---
Wasserkuppe 921 ------ 8.3 7.9 10.6 56 0.0 0 5 SW 28 37 wolkenlos ---
Meiningen 450 1030.8 4.3 3.6 12.0 94 0.0 0 0 S 12 17 wolkenlos ---
Erfurt 316 1028.4 8.6 6.4 13.9 72 0.0 0 0 S 17 22 wolkenlos ---
Gera 311 1029.7 7.0 6.4 13.2 78 0.0 0 0 S 19 24 wolkenlos ---
Fichtelberg 1213 ------ 8.5 7.5 9.6 52 0.0 0 63 SW 20 26 wolkenlos ---
Trier 265 1029.0 6.8 6.8 15.3 80 0.0 0 0 SW 7 12 wolkenlos ---
Hahn-Flh. 497 1029.4 6.4 6.0 13.3 70 0.0 0 0 S 15 18 --- ---
Frankfurt/M-Flh. 112 1029.7 1.6 1.5 12.4 99 0.0 0 0 S 2 8 Dunst oder flacher Nebel ---
OF-Wetterpark 119 1029.7 1.9 1.8 12.1 96 0.0 0 0 SO 3 4 wolkenlos ---
Würzburg 268 1031.1 3.3 3.3 14.8 98 0.0 0 0 - 0 3 wolkenlos ---
Bamberg 239 1032.0 -0.8 -1.0 8.8 100 0.0 0 0 SO 3 5 Dunst oder flacher Nebel ---
Hof 567 1031.9 3.2 3.2 11.1 87 0.0 0 0 SO 6 12 wolkenlos ---
Weiden 438 1033.2 1.0 0.9 11.8 98 0.0 0 0 - 0 4 wolkenlos ---
Saarbrücken-Flh. 320 1029.6 8.4 8.4 13.2 61 0.0 0 0 SW 5 18 wolkenlos ---
Karlsruhe-Rheinst. 116 1030.2 1.4 1.1 12.1 97 0.0 0 0 S 3 7 wolkenlos ---
Mannheim 96 1029.3 8.6 5.1 15.0 78 0.0 0 0 S 11 19 wolkenlos ---
Stuttgart-Flh. 371 1031.9 2.0 2.0 14.9 96 0.0 0 0 O 5 8 wolkenlos ---
Öhringen 276 1030.5 5.0 4.7 15.1 89 0.0 0 0 NO 5 11 wolkenlos ---
Nürnberg-Flh. 314 1031.6 3.4 2.9 12.7 96 0.0 0 0 S 7 11 Dunst oder flacher Nebel ---
Regensburg 366 1033.6 -0.7 -0.8 9.5 98 0.0 0 0 NO 3 6 Nebel ---
Straubing 351 1033.9 -0.8 -1.1 9.0 100 0.0 0 0 - 0 5 gefrierender Nebel ---
Großer Arber 1436 ------ 7.5 7.4 9.4 42 0.0 0 138 SW 11 15 wolkenlos ---
Lahr 155 1030.4 6.6 2.9 14.2 79 0.0 0 0 SW 12 15 wolkenlos ---
Freudenstadt 797 ------ 7.6 6.5 13.9 64 0.0 0 0 W 16 26 wolkenlos ---
Stötten 734 ------ --- --- --- --- ---- --- --- -- --- --- --- ---
Augsburg 462 1033.4 0.9 0.6 10.5 90 0.0 0 0 SO 8 10 wolkenlos ---
München-Flh. 444 1034.0 -1.4 -2.5 7.8 100 0.0 0 0 S 4 5 Dunst oder flacher Nebel ---
Fürstenzell 476 1033.4 2.5 2.5 12.1 93 0.0 0 0 NO 5 9 wolkenlos ---
Feldberg/Schw. 1486 ------ 9.4 7.8 9.9 37 0.0 0 82 S 21 26 wolkenlos ---
Konstanz 443 1033.7 1.0 0.4 10.4 97 0.0 0 0 N 4 5 Dunst oder flacher Nebel ---
Kempten 705 1034.7 0.0 0.0 9.1 82 0.0 0 0 SO 6 15 wolkenlos ---
Oberstdorf 806 ------ -2.5 -2.6 5.9 87 0.0 0 0 S 4 8 wolkenlos ---
Zugspitze 2960 ------ 0.1 -0.5 1.4 16 ---- --- 280 W 27 32 wolkenlos ---
Hohenpeißenberg 977 ------ 11.4 10.3 13.2 32 0.0 0 0 S 7 13 wolkenlos ---

                                                                                                              Tabelle: 19 UHR  

STATIONHÖHELUFTD.TEMP.T-MinT-MaxU%RR1RR12SSSDDFFFXWetter+WolkenBöen
UFS TW Ems 0 ------ --- --- --- --- ---- --- --- -- --- --- --- ---
UFS Deutsche Bucht 26 1026.6 5.2 5.2 7.8 96 ---- --- --- W 22 --- --- ---
Helgoland 4 1026.6 5.3 5.3 8.2 96 0.0 0 0 W 19 30 Regen ---
List/Sylt 26 1025.1 4.4 4.4 10.4 95 0.0 0 0 W 27 36 --- ---
Schleswig 43 1025.7 6.8 6.8 14.2 91 0.0 0 0 W 12 29 --- ---
Leuchtturm Kiel 5 1025.2 7.8 7.1 14.3 88 ---- --- --- W 35 41 --- ---
Kiel 27 1025.6 8.5 8.5 15.7 87 0.0 0 0 W 16 35 --- ---
Fehmarn 3 1025.0 5.7 5.7 13.6 96 0.0 0 0 W 25 33 --- ---
Arkona 42 1023.4 10.3 6.9 14.8 78 0.0 0 0 W 48 59 --- Windböen
Norderney 11 1027.3 5.2 5.2 11.5 92 0.0 0 0 W 15 26 --- ---
Leuchtt. Alte Weser 32 1026.9 5.2 5.2 12.3 99 ---- --- --- W 32 --- --- ---
Cuxhaven 5 1026.7 7.2 6.9 15.0 89 0.0 0 0 W 14 26 --- ---
Hamburg-Flh 11 1026.3 9.7 6.6 17.2 84 0.0 0 0 NW 12 22 gering bewölkt ---
Schwerin 59 1025.3 12.2 7.6 17.2 63 0.0 0 0 SW 12 20 --- ---
Rostock 4 1024.9 7.9 7.7 17.0 82 0.0 0 0 W 20 30 --- ---
Greifswald 2 1024.2 14.3 8.8 17.8 66 0.0 0 0 W 13 24 --- ---
Emden 0 1027.3 7.7 7.7 15.6 87 0.0 --- 0 W 14 28 --- ---
Bremen-Flh. 5 1026.3 11.6 6.7 17.6 70 0.0 0 0 NW 7 24 bewölkt ---
Lüchow 17 1026.2 11.9 4.1 18.0 71 0.0 0 0 SW 5 9 --- ---
Marnitz 81 1025.6 12.2 9.0 18.1 72 0.0 0 0 W 10 15 --- ---
Waren 70 1025.2 12.7 4.4 17.3 68 0.0 0 0 SW 7 16 --- ---
Neuruppin 38 1025.8 13.0 3.2 18.5 69 0.0 0 0 W 5 13 --- ---
Angermünde 56 1025.4 13.3 6.1 18.4 68 0.0 0 0 W 11 15 wolkenlos ---
Münster/Osnabr.-Flh. 48 1026.4 11.4 4.1 17.9 78 0.0 0 0 N 2 5 gering bewölkt ---
Hannover-Flh. 59 1026.4 14.1 9.7 17.4 61 0.0 0 0 SW 6 9 gering bewölkt ---
Magdeburg 76 1026.5 12.0 4.9 19.8 76 0.0 0 0 NW 4 10 wolkenlos ---
Potsdam 81 1026.2 13.4 7.7 19.7 64 0.0 0 0 W 15 26 wolkenlos ---
Berlin-Tegel 37 1026.1 14.5 7.6 19.4 60 0.0 0 0 W 11 18 gering bewölkt ---
Berlin-Tempelhof 48 1025.9 15.0 6.6 19.4 57 0.0 0 --- W 11 19 --- ---
Berlin-Dahlem 51 1025.8 14.8 4.4 19.4 --- ---- 0 0 W 14 --- wolkenlos ---
Lindenberg 91 1025.9 14.6 5.9 19.2 54 0.0 0 0 SW 13 21 wolkenlos ---
Düsseldorf-Flh. 45 1026.4 15.3 9.7 19.0 64 0.0 0 0 N 6 8 stark bewölkt ---
Essen 150 1026.4 15.7 10.9 17.6 57 0.0 0 0 NW 3 6 --- ---
Kahler Asten 839 ------ 10.5 7.4 13.9 69 0.0 0 0 SW 11 12 --- ---
Bad Lippspringe 157 1026.8 12.3 4.7 17.8 77 0.0 0 0 NO 3 7 --- ---
Fritzlar 174 1027.1 13.0 -0.1 18.0 63 ---- 0 --- W 7 --- --- ---
Brocken 1142 ------ 7.8 6.8 10.2 76 ---- --- --- SW 27 40 --- ---
Leipzig-Flh. 142 1027.2 12.7 8.1 19.2 64 0.0 0 0 SW 11 15 gering bewölkt ---
Dresden-Flh. 227 1027.6 11.7 5.0 20.0 63 0.0 0 0 S 13 17 wolkenlos ---
Cottbus 69 1026.2 11.5 2.4 20.6 62 0.0 0 0 SW 6 13 wolkenlos ---
Görlitz 238 1027.7 11.2 7.9 17.0 64 0.0 0 0 SW 20 27 wolkenlos ---
Aachen 231 1026.7 14.7 10.6 18.7 64 0.0 0 0 - 0 6 --- ---
Nürburg 485 1027.7 12.2 7.9 17.4 53 0.0 0 0 S 9 15 --- ---
Köln/Bonn-Flh. 92 1026.4 14.9 9.7 20.8 60 0.0 0 0 N 6 11 gering bewölkt ---
Gießen/Wettenberg 203 1027.6 13.3 1.7 16.6 56 0.0 0 0 NO 5 9 wolkenlos ---
Wasserkuppe 921 ------ 8.0 7.8 14.3 49 0.0 0 0 SW 21 27 wolkenlos ---
Meiningen 450 1028.3 12.8 3.6 16.2 54 0.0 0 0 S 11 14 wolkenlos ---
Erfurt 316 1027.8 12.1 8.3 18.6 61 0.0 0 0 SW 15 18 wolkenlos ---
Gera 311 1028.0 12.8 6.6 18.9 52 0.0 0 0 SW 14 18 wolkenlos ---
Fichtelberg 1213 ------ 7.0 7.0 12.3 59 0.0 0 60 W 35 39 wolkenlos ---
Trier 265 1027.9 13.6 6.6 18.0 48 0.0 0 0 S 5 10 --- ---
Hahn-Flh. 497 1027.8 13.3 5.9 17.7 42 0.0 0 0 SW 9 13 --- ---
Frankfurt/M-Flh. 112 1027.7 11.5 0.9 19.0 61 0.0 0 0 N 4 11 gering bewölkt ---
OF-Wetterpark 119 1027.8 11.3 1.3 19.5 58 0.0 0 0 O 3 5 wolkenlos ---
Würzburg 268 1028.7 14.3 2.8 20.5 47 0.0 0 0 S 7 9 wolkenlos ---
Bamberg 239 1029.1 8.4 -1.3 19.2 76 0.0 0 0 SO 2 5 wolkenlos ---
Hof 567 1028.8 11.5 3.2 17.1 49 0.0 0 0 SW 10 15 wolkenlos ---
Weiden 438 1029.3 11.7 0.5 17.4 65 0.0 0 0 S 7 13 wolkenlos ---
Saarbrücken-Flh. 320 1028.4 11.7 7.1 18.1 48 0.0 0 0 W 3 8 gering bewölkt ---
Karlsruhe-Rheinst. 116 1027.9 11.6 1.0 19.6 64 0.0 0 0 SO 4 6 wolkenlos ---
Mannheim 96 1027.5 12.8 7.4 20.0 55 0.0 0 0 SO 4 8 wolkenlos ---
Stuttgart-Flh. 371 1028.8 10.7 1.3 20.1 69 0.0 0 0 NW 6 9 gering bewölkt ---
Öhringen 276 1028.5 13.2 4.7 19.1 63 0.0 0 0 SO 6 9 wolkenlos ---
Nürnberg-Flh. 314 1028.5 13.6 2.9 19.7 49 0.0 0 0 O 8 11 wolkenlos ---
Regensburg 366 1029.8 9.7 -0.9 15.4 71 0.0 0 0 N 3 10 wolkenlos ---
Straubing 351 1029.9 9.2 -1.1 14.9 82 0.0 0 0 S 4 6 wolkenlos ---
Großer Arber 1436 ------ 8.1 7.3 11.4 32 0.0 0 136 SW 14 24 wolkenlos ---
Lahr 155 1027.8 14.6 3.1 21.0 48 0.0 0 0 S 9 12 wolkenlos ---
Freudenstadt 797 ------ 12.9 6.6 17.3 32 0.0 0 0 SW 13 19 wolkenlos ---
Stötten 734 1028.9 13.4 10.4 18.3 47 0.0 0 0 S 10 17 wolkenlos ---
Augsburg 462 1029.6 8.5 -0.1 18.9 81 0.0 0 0 O 3 11 wolkenlos ---
München-Flh. 444 1029.8 8.9 -1.9 18.1 73 0.0 0 0 NO 4 13 wolkenlos ---
Fürstenzell 476 1029.6 12.2 2.2 16.4 55 0.0 0 0 - 0 4 wolkenlos ---
Feldberg/Schw. 1486 ------ 8.7 8.4 10.8 33 0.0 0 81 SW 14 21 wolkenlos ---
Konstanz 443 1029.6 10.8 0.2 17.4 57 0.0 0 0 NO 6 9 wolkenlos ---
Kempten 705 1030.1 8.5 -0.2 20.0 70 0.0 0 0 O 9 13 wolkenlos ---
Oberstdorf 806 ------ 6.9 -3.0 17.8 55 0.0 0 --- S 13 18 wolkenlos ---
Zugspitze 2960 ------ -0.9 -1.1 2.1 27 ---- --- --- S 15 18 wolkenlos ---
Hohenpeißenberg 977 ------ 12.5 10.9 18.2 31 0.0 0 0 S 17 18 wolkenlos ---

   

  • Wetterzustand
  • Windrichtung und -geschwindigkeit
  • Luftdruck
  • relative Luftfeuchtigkeit
  • Sichtweite
  • Gesamtbedeckungsgrad
  • Niederschlag
  • Sonnenscheindauer

 Höhe:     m über NN
Luftd.:   auf Meereshöhe reduzierter Luftdruck in hPa
TEMP.:   Lufttemperatur in Grad Celsius
T-MIN:   Minimumtemperatur der Luft in 2m Höhe in Grad Celsius, von 18 UTC Vortag bis 06 UTC heute
T-MAX:  Maximumtemperatur der Luft in 2m Höhe in Grad Celsius, von 18 UTC Vortag bis 06 UTC heute
RR1:     Niederschlagsmenge, einstündig, mm ist gleich Liter pro
RR12:   Niederschlagsmenge, 12 stündig, 18 UTC Vortag bis 06 UTC heute in mm ist gleich Liter pro
SSS:     Gesamtschneehöhe
DD:      Windrichtung
FF:       Windgeschwindigkeit letztes 10-Minutenmittel in km/h
FX:       höchste Windspitze während der letzten Stunde in km/h
---:      Wert nicht vorhanden

 

2009-2021

Unwetterwarnungen

 

  Radarbild           

aktueller Radarfilm Deutschland

  Europa-Meteoalarm